sensor_id;sensor_type;location;lat;lon;timestamp;P1;durP1;ratioP1;P2;durP2;ratioP2
78916;SDS011;68315;48.608;11.436;2023-06-01T00:02:11;5.63;;;4.22;;
78916;SDS011;68315;48.608;11.436;2023-06-01T00:04:38;6.75;;;4.10;;
78916;SDS011;68315;48.608;11.436;2023-06-01T00:07:07;6.38;;;4.15;;
78916;SDS011;68315;48.608;11.436;2023-06-01T00:09:32;5.03;;;3.72;;
78916;SDS011;68315;48.608;11.436;2023-06-01T00:11:58;5.25;;;3.50;;
78916;SDS011;68315;48.608;11.436;2023-06-01T00:14:23;6.25;;;4.15;;
78916;SDS011;68315;48.608;11.436;2023-06-01T00:16:48;6.57;;;3.85;;
78916;SDS011;68315;48.608;11.436;2023-06-01T00:19:13;3.95;;;3.30;;
78916;SDS011;68315;48.608;11.436;2023-06-01T00:21:39;5.07;;;4.00;;
78916;SDS011;68315;48.608;11.436;2023-06-01T00:24:04;6.03;;;3.50;;
78916;SDS011;68315;48.608;11.436;2023-06-01T00:26:30;5.63;;;3.97;;
78916;SDS011;68315;48.608;11.436;2023-06-01T00:28:57;5.50;;;3.90;;
78916;SDS011;68315;48.608;11.436;2023-06-01T00:31:22;5.85;;;4.07;;
78916;SDS011;68315;48.608;11.436;2023-06-01T00:33:48;5.63;;;3.97;;
78916;SDS011;68315;48.608;11.436;2023-06-01T00:36:15;6.43;;;3.90;;
78916;SDS011;68315;48.608;11.436;2023-06-01T00:38:41;5.22;;;3.67;;
78916;SDS011;68315;48.608;11.436;2023-06-01T00:41:06;6.20;;;4.40;;
78916;SDS011;68315;48.608;11.436;2023-06-01T00:43:31;8.45;;;4.32;;
78916;SDS011;68315;48.608;11.436;2023-06-01T00:45:56;5.55;;;4.25;;
78916;SDS011;68315;48.608;11.436;2023-06-01T00:48:22;6.88;;;3.90;;
78916;SDS011;68315;48.608;11.436;2023-06-01T00:50:48;5.15;;;4.10;;
78916;SDS011;68315;48.608;11.436;2023-06-01T00:53:18;5.32;;;3.67;;
78916;SDS011;68315;48.608;11.436;2023-06-01T00:55:44;6.05;;;3.90;;
78916;SDS011;68315;48.608;11.436;2023-06-01T00:58:11;5.30;;;4.30;;
78916;SDS011;68315;48.608;11.436;2023-06-01T01:00:40;6.75;;;4.30;;
78916;SDS011;68315;48.608;11.436;2023-06-01T01:03:06;4.88;;;4.10;;
78916;SDS011;68315;48.608;11.436;2023-06-01T01:05:35;8.52;;;5.38;;
78916;SDS011;68315;48.608;11.436;2023-06-01T01:08:07;7.00;;;4.43;;
78916;SDS011;68315;48.608;11.436;2023-06-01T01:10:45;4.82;;;3.42;;
78916;SDS011;68315;48.608;11.436;2023-06-01T01:13:17;5.00;;;3.72;;
78916;SDS011;68315;48.608;11.436;2023-06-01T01:18:33;4.75;;;3.90;;
78916;SDS011;68315;48.608;11.436;2023-06-01T01:21:00;4.32;;;3.50;;
78916;SDS011;68315;48.608;11.436;2023-06-01T01:29:15;8.05;;;4.85;;
78916;SDS011;68315;48.608;11.436;2023-06-01T01:31:41;4.85;;;3.92;;
78916;SDS011;68315;48.608;11.436;2023-06-01T01:34:07;4.65;;;3.53;;
78916;SDS011;68315;48.608;11.436;2023-06-01T01:36:33;5.78;;;4.20;;
78916;SDS011;68315;48.608;11.436;2023-06-01T01:38:58;6.90;;;4.70;;
78916;SDS011;68315;48.608;11.436;2023-06-01T01:41:24;6.95;;;4.85;;
78916;SDS011;68315;48.608;11.436;2023-06-01T01:43:50;5.63;;;4.10;;
78916;SDS011;68315;48.608;11.436;2023-06-01T01:46:24;5.68;;;4.43;;
78916;SDS011;68315;48.608;11.436;2023-06-01T01:51:45;6.93;;;5.07;;
78916;SDS011;68315;48.608;11.436;2023-06-01T01:54:17;6.68;;;4.65;;
78916;SDS011;68315;48.608;11.436;2023-06-01T01:56:44;5.90;;;4.53;;
78916;SDS011;68315;48.608;11.436;2023-06-01T01:59:09;6.75;;;4.60;;
78916;SDS011;68315;48.608;11.436;2023-06-01T02:01:35;5.03;;;3.90;;
78916;SDS011;68315;48.608;11.436;2023-06-01T02:04:02;8.90;;;5.18;;
78916;SDS011;68315;48.608;11.436;2023-06-01T02:06:29;6.80;;;4.60;;
78916;SDS011;68315;48.608;11.436;2023-06-01T02:08:54;6.80;;;4.32;;
78916;SDS011;68315;48.608;11.436;2023-06-01T02:11:20;8.38;;;4.43;;
78916;SDS011;68315;48.608;11.436;2023-06-01T02:13:46;8.93;;;4.32;;
78916;SDS011;68315;48.608;11.436;2023-06-01T02:16:11;5.20;;;4.20;;
78916;SDS011;68315;48.608;11.436;2023-06-01T02:18:37;5.45;;;4.00;;
78916;SDS011;68315;48.608;11.436;2023-06-01T02:21:04;6.53;;;4.60;;
78916;SDS011;68315;48.608;11.436;2023-06-01T02:23:30;10.07;;;5.35;;
78916;SDS011;68315;48.608;11.436;2023-06-01T02:25:55;5.97;;;4.78;;
78916;SDS011;68315;48.608;11.436;2023-06-01T02:28:20;10.18;;;6.07;;
78916;SDS011;68315;48.608;11.436;2023-06-01T02:30:45;5.47;;;4.25;;
78916;SDS011;68315;48.608;11.436;2023-06-01T02:33:11;6.00;;;4.03;;
78916;SDS011;68315;48.608;11.436;2023-06-01T02:35:36;5.93;;;4.07;;
78916;SDS011;68315;48.608;11.436;2023-06-01T02:38:01;5.95;;;4.00;;
78916;SDS011;68315;48.608;11.436;2023-06-01T02:40:27;6.93;;;5.50;;
78916;SDS011;68315;48.608;11.436;2023-06-01T02:42:52;8.88;;;5.95;;
78916;SDS011;68315;48.608;11.436;2023-06-01T02:45:17;7.35;;;5.47;;
78916;SDS011;68315;48.608;11.436;2023-06-01T02:47:42;6.10;;;5.00;;
78916;SDS011;68315;48.608;11.436;2023-06-01T02:50:09;6.22;;;5.03;;
78916;SDS011;68315;48.608;11.436;2023-06-01T02:52:35;6.78;;;4.63;;
78916;SDS011;68315;48.608;11.436;2023-06-01T02:55:00;5.68;;;4.43;;
78916;SDS011;68315;48.608;11.436;2023-06-01T02:57:26;7.20;;;5.47;;
78916;SDS011;68315;48.608;11.436;2023-06-01T02:59:51;9.30;;;6.20;;
78916;SDS011;68315;48.608;11.436;2023-06-01T03:02:16;5.18;;;4.20;;
78916;SDS011;68315;48.608;11.436;2023-06-01T03:04:42;6.28;;;5.20;;
78916;SDS011;68315;48.608;11.436;2023-06-01T03:07:08;8.18;;;6.20;;
78916;SDS011;68315;48.608;11.436;2023-06-01T03:09:33;8.23;;;5.20;;
78916;SDS011;68315;48.608;11.436;2023-06-01T03:11:59;6.00;;;4.00;;
78916;SDS011;68315;48.608;11.436;2023-06-01T03:14:26;5.35;;;4.00;;
78916;SDS011;68315;48.608;11.436;2023-06-01T03:16:51;7.32;;;4.43;;
78916;SDS011;68315;48.608;11.436;2023-06-01T03:19:16;7.93;;;5.70;;
78916;SDS011;68315;48.608;11.436;2023-06-01T03:21:41;7.00;;;5.05;;
78916;SDS011;68315;48.608;11.436;2023-06-01T03:24:07;6.47;;;5.20;;
78916;SDS011;68315;48.608;11.436;2023-06-01T03:26:32;6.78;;;4.72;;
78916;SDS011;68315;48.608;11.436;2023-06-01T03:28:57;8.30;;;5.40;;
78916;SDS011;68315;48.608;11.436;2023-06-01T03:31:23;6.53;;;5.00;;
78916;SDS011;68315;48.608;11.436;2023-06-01T03:33:48;7.75;;;4.75;;
78916;SDS011;68315;48.608;11.436;2023-06-01T03:36:13;6.78;;;4.82;;
78916;SDS011;68315;48.608;11.436;2023-06-01T03:38:39;9.85;;;5.38;;
78916;SDS011;68315;48.608;11.436;2023-06-01T03:41:04;7.72;;;4.63;;
78916;SDS011;68315;48.608;11.436;2023-06-01T03:43:29;6.20;;;4.15;;
78916;SDS011;68315;48.608;11.436;2023-06-01T03:45:55;7.38;;;5.47;;
78916;SDS011;68315;48.608;11.436;2023-06-01T03:48:21;10.70;;;4.82;;
78916;SDS011;68315;48.608;11.436;2023-06-01T03:50:46;8.60;;;5.18;;
78916;SDS011;68315;48.608;11.436;2023-06-01T03:53:11;8.27;;;5.25;;
78916;SDS011;68315;48.608;11.436;2023-06-01T03:55:37;12.75;;;5.78;;
78916;SDS011;68315;48.608;11.436;2023-06-01T03:58:02;12.90;;;5.63;;
78916;SDS011;68315;48.608;11.436;2023-06-01T04:00:29;11.57;;;4.80;;
78916;SDS011;68315;48.608;11.436;2023-06-01T04:02:55;6.95;;;4.47;;
78916;SDS011;68315;48.608;11.436;2023-06-01T04:05:22;7.40;;;4.95;;
78916;SDS011;68315;48.608;11.436;2023-06-01T04:07:50;7.78;;;5.30;;
78916;SDS011;68315;48.608;11.436;2023-06-01T04:10:16;9.55;;;5.20;;
78916;SDS011;68315;48.608;11.436;2023-06-01T04:12:42;17.65;;;6.35;;
78916;SDS011;68315;48.608;11.436;2023-06-01T04:15:09;9.20;;;5.10;;
78916;SDS011;68315;48.608;11.436;2023-06-01T04:17:36;8.63;;;4.93;;
78916;SDS011;68315;48.608;11.436;2023-06-01T04:20:03;6.72;;;4.30;;
78916;SDS011;68315;48.608;11.436;2023-06-01T04:22:31;7.45;;;5.05;;
78916;SDS011;68315;48.608;11.436;2023-06-01T04:24:56;5.60;;;4.60;;
78916;SDS011;68315;48.608;11.436;2023-06-01T04:27:22;6.13;;;4.82;;
78916;SDS011;68315;48.608;11.436;2023-06-01T04:29:49;5.38;;;4.70;;
78916;SDS011;68315;48.608;11.436;2023-06-01T04:32:15;6.38;;;4.53;;
78916;SDS011;68315;48.608;11.436;2023-06-01T04:34:46;7.22;;;4.40;;
78916;SDS011;68315;48.608;11.436;2023-06-01T04:37:14;7.15;;;4.90;;
78916;SDS011;68315;48.608;11.436;2023-06-01T04:39:40;9.20;;;5.75;;
78916;SDS011;68315;48.608;11.436;2023-06-01T04:42:06;6.50;;;4.78;;
78916;SDS011;68315;48.608;11.436;2023-06-01T04:44:33;6.65;;;4.20;;
78916;SDS011;68315;48.608;11.436;2023-06-01T04:46:59;5.57;;;3.80;;
78916;SDS011;68315;48.608;11.436;2023-06-01T04:49:28;8.57;;;4.47;;
78916;SDS011;68315;48.608;11.436;2023-06-01T04:51:54;8.73;;;5.95;;
78916;SDS011;68315;48.608;11.436;2023-06-01T04:54:19;8.90;;;5.90;;
78916;SDS011;68315;48.608;11.436;2023-06-01T04:56:44;8.05;;;5.78;;
78916;SDS011;68315;48.608;11.436;2023-06-01T04:59:09;7.13;;;5.50;;
78916;SDS011;68315;48.608;11.436;2023-06-01T05:01:35;10.63;;;6.97;;
78916;SDS011;68315;48.608;11.436;2023-06-01T05:04:03;11.10;;;5.40;;
78916;SDS011;68315;48.608;11.436;2023-06-01T05:06:29;9.13;;;6.55;;
78916;SDS011;68315;48.608;11.436;2023-06-01T05:08:54;5.88;;;5.18;;
78916;SDS011;68315;48.608;11.436;2023-06-01T05:11:19;7.47;;;4.75;;
78916;SDS011;68315;48.608;11.436;2023-06-01T05:13:46;8.32;;;5.90;;
78916;SDS011;68315;48.608;11.436;2023-06-01T05:16:12;7.10;;;5.20;;
78916;SDS011;68315;48.608;11.436;2023-06-01T05:18:37;8.98;;;5.45;;
78916;SDS011;68315;48.608;11.436;2023-06-01T05:21:03;9.15;;;5.22;;
78916;SDS011;68315;48.608;11.436;2023-06-01T05:23:28;9.18;;;5.72;;
78916;SDS011;68315;48.608;11.436;2023-06-01T05:25:54;6.55;;;4.68;;
78916;SDS011;68315;48.608;11.436;2023-06-01T05:28:31;6.28;;;4.97;;
78916;SDS011;68315;48.608;11.436;2023-06-01T05:30:57;8.15;;;5.72;;
78916;SDS011;68315;48.608;11.436;2023-06-01T05:33:23;6.47;;;5.43;;
78916;SDS011;68315;48.608;11.436;2023-06-01T05:35:48;10.68;;;5.65;;
78916;SDS011;68315;48.608;11.436;2023-06-01T05:38:13;9.77;;;6.45;;
78916;SDS011;68315;48.608;11.436;2023-06-01T05:40:39;8.80;;;5.30;;
78916;SDS011;68315;48.608;11.436;2023-06-01T05:43:04;6.60;;;4.63;;
78916;SDS011;68315;48.608;11.436;2023-06-01T05:45:29;6.88;;;4.38;;
78916;SDS011;68315;48.608;11.436;2023-06-01T05:47:55;5.05;;;3.83;;
78916;SDS011;68315;48.608;11.436;2023-06-01T05:50:20;6.60;;;4.65;;
78916;SDS011;68315;48.608;11.436;2023-06-01T05:52:45;7.80;;;5.03;;
78916;SDS011;68315;48.608;11.436;2023-06-01T05:55:10;5.03;;;3.95;;
78916;SDS011;68315;48.608;11.436;2023-06-01T05:57:36;8.20;;;4.28;;
78916;SDS011;68315;48.608;11.436;2023-06-01T06:00:01;5.93;;;4.25;;
78916;SDS011;68315;48.608;11.436;2023-06-01T06:02:28;7.60;;;4.47;;
78916;SDS011;68315;48.608;11.436;2023-06-01T06:04:53;5.15;;;3.70;;
78916;SDS011;68315;48.608;11.436;2023-06-01T06:07:19;5.05;;;3.83;;
78916;SDS011;68315;48.608;11.436;2023-06-01T06:09:44;6.65;;;4.00;;
78916;SDS011;68315;48.608;11.436;2023-06-01T06:12:10;6.95;;;3.90;;
78916;SDS011;68315;48.608;11.436;2023-06-01T06:14:35;5.28;;;3.40;;
78916;SDS011;68315;48.608;11.436;2023-06-01T06:17:00;5.85;;;3.85;;
78916;SDS011;68315;48.608;11.436;2023-06-01T06:19:27;6.15;;;3.55;;
78916;SDS011;68315;48.608;11.436;2023-06-01T06:21:52;6.03;;;3.45;;
78916;SDS011;68315;48.608;11.436;2023-06-01T06:24:18;4.97;;;3.47;;
78916;SDS011;68315;48.608;11.436;2023-06-01T06:26:43;5.72;;;3.45;;
78916;SDS011;68315;48.608;11.436;2023-06-01T06:29:08;6.22;;;4.35;;
78916;SDS011;68315;48.608;11.436;2023-06-01T06:31:33;6.55;;;3.75;;
78916;SDS011;68315;48.608;11.436;2023-06-01T06:33:59;5.35;;;3.78;;
78916;SDS011;68315;48.608;11.436;2023-06-01T06:36:25;5.18;;;3.63;;
78916;SDS011;68315;48.608;11.436;2023-06-01T06:38:50;6.60;;;3.75;;
78916;SDS011;68315;48.608;11.436;2023-06-01T06:41:15;7.27;;;4.03;;
78916;SDS011;68315;48.608;11.436;2023-06-01T06:43:40;4.20;;;3.15;;
78916;SDS011;68315;48.608;11.436;2023-06-01T06:46:06;5.97;;;3.50;;
78916;SDS011;68315;48.608;11.436;2023-06-01T06:48:32;6.18;;;3.90;;
78916;SDS011;68315;48.608;11.436;2023-06-01T06:50:57;3.95;;;3.35;;
78916;SDS011;68315;48.608;11.436;2023-06-01T06:53:22;5.13;;;3.35;;
78916;SDS011;68315;48.608;11.436;2023-06-01T06:55:48;4.13;;;3.20;;
78916;SDS011;68315;48.608;11.436;2023-06-01T06:58:13;5.00;;;3.20;;
78916;SDS011;68315;48.608;11.436;2023-06-01T07:00:38;7.05;;;3.90;;
78916;SDS011;68315;48.608;11.436;2023-06-01T07:03:04;5.32;;;3.95;;
78916;SDS011;68315;48.608;11.436;2023-06-01T07:05:30;9.30;;;4.13;;
78916;SDS011;68315;48.608;11.436;2023-06-01T07:07:55;3.58;;;2.97;;
78916;SDS011;68315;48.608;11.436;2023-06-01T07:10:21;5.53;;;3.28;;
78916;SDS011;68315;48.608;11.436;2023-06-01T07:12:46;5.35;;;3.40;;
78916;SDS011;68315;48.608;11.436;2023-06-01T07:15:11;4.97;;;3.50;;
78916;SDS011;68315;48.608;11.436;2023-06-01T07:17:37;3.15;;;2.85;;
78916;SDS011;68315;48.608;11.436;2023-06-01T07:20:03;8.23;;;3.60;;
78916;SDS011;68315;48.608;11.436;2023-06-01T07:22:32;5.90;;;3.20;;
78916;SDS011;68315;48.608;11.436;2023-06-01T07:24:58;4.25;;;3.05;;
78916;SDS011;68315;48.608;11.436;2023-06-01T07:27:23;7.47;;;3.60;;
78916;SDS011;68315;48.608;11.436;2023-06-01T07:29:48;4.97;;;2.97;;
78916;SDS011;68315;48.608;11.436;2023-06-01T07:32:19;5.82;;;3.10;;
78916;SDS011;68315;48.608;11.436;2023-06-01T07:34:45;3.30;;;2.90;;
78916;SDS011;68315;48.608;11.436;2023-06-01T07:37:10;5.47;;;3.40;;
78916;SDS011;68315;48.608;11.436;2023-06-01T07:39:35;7.63;;;3.58;;
78916;SDS011;68315;48.608;11.436;2023-06-01T07:42:01;4.20;;;3.10;;
78916;SDS011;68315;48.608;11.436;2023-06-01T07:44:26;5.88;;;3.53;;
78916;SDS011;68315;48.608;11.436;2023-06-01T07:46:52;6.30;;;3.63;;
78916;SDS011;68315;48.608;11.436;2023-06-01T07:49:18;3.78;;;3.35;;
78916;SDS011;68315;48.608;11.436;2023-06-01T07:51:43;7.30;;;3.83;;
78916;SDS011;68315;48.608;11.436;2023-06-01T07:54:09;5.32;;;3.58;;
78916;SDS011;68315;48.608;11.436;2023-06-01T07:56:35;3.97;;;2.97;;
78916;SDS011;68315;48.608;11.436;2023-06-01T07:59:01;5.60;;;3.83;;
78916;SDS011;68315;48.608;11.436;2023-06-01T08:01:26;5.53;;;3.67;;
78916;SDS011;68315;48.608;11.436;2023-06-01T08:03:52;5.20;;;3.80;;
78916;SDS011;68315;48.608;11.436;2023-06-01T08:06:17;4.10;;;3.10;;
78916;SDS011;68315;48.608;11.436;2023-06-01T08:08:43;5.07;;;3.63;;
78916;SDS011;68315;48.608;11.436;2023-06-01T08:11:10;6.50;;;3.50;;
78916;SDS011;68315;48.608;11.436;2023-06-01T08:13:36;4.55;;;3.17;;
78916;SDS011;68315;48.608;11.436;2023-06-01T08:16:02;5.10;;;3.97;;
78916;SDS011;68315;48.608;11.436;2023-06-01T08:18:27;5.05;;;3.60;;
78916;SDS011;68315;48.608;11.436;2023-06-01T08:20:53;5.75;;;3.85;;
78916;SDS011;68315;48.608;11.436;2023-06-01T08:23:20;5.50;;;3.85;;
78916;SDS011;68315;48.608;11.436;2023-06-01T08:25:47;3.95;;;3.55;;
78916;SDS011;68315;48.608;11.436;2023-06-01T08:28:13;5.00;;;3.33;;
78916;SDS011;68315;48.608;11.436;2023-06-01T08:30:38;5.35;;;3.38;;
78916;SDS011;68315;48.608;11.436;2023-06-01T08:33:04;4.22;;;3.47;;
78916;SDS011;68315;48.608;11.436;2023-06-01T08:35:29;5.28;;;3.80;;
78916;SDS011;68315;48.608;11.436;2023-06-01T08:37:58;5.68;;;3.55;;
78916;SDS011;68315;48.608;11.436;2023-06-01T08:40:24;5.20;;;3.90;;
78916;SDS011;68315;48.608;11.436;2023-06-01T08:45:37;5.47;;;3.00;;
78916;SDS011;68315;48.608;11.436;2023-06-01T08:48:03;6.65;;;3.00;;
78916;SDS011;68315;48.608;11.436;2023-06-01T08:50:33;5.43;;;3.53;;
78916;SDS011;68315;48.608;11.436;2023-06-01T08:52:58;7.35;;;3.50;;
78916;SDS011;68315;48.608;11.436;2023-06-01T08:55:24;5.70;;;3.92;;
78916;SDS011;68315;48.608;11.436;2023-06-01T08:57:50;8.82;;;4.03;;
78916;SDS011;68315;48.608;11.436;2023-06-01T09:00:15;5.60;;;3.95;;
78916;SDS011;68315;48.608;11.436;2023-06-01T09:02:42;4.68;;;3.72;;
78916;SDS011;68315;48.608;11.436;2023-06-01T09:05:08;6.07;;;3.40;;
78916;SDS011;68315;48.608;11.436;2023-06-01T09:07:34;7.93;;;4.57;;
78916;SDS011;68315;48.608;11.436;2023-06-01T09:09:59;6.45;;;4.30;;
78916;SDS011;68315;48.608;11.436;2023-06-01T09:12:28;4.20;;;3.60;;
78916;SDS011;68315;48.608;11.436;2023-06-01T09:15:10;6.82;;;3.78;;
78916;SDS011;68315;48.608;11.436;2023-06-01T09:17:38;6.10;;;3.58;;
78916;SDS011;68315;48.608;11.436;2023-06-01T09:20:04;7.50;;;4.22;;
78916;SDS011;68315;48.608;11.436;2023-06-01T09:22:43;6.03;;;3.75;;
78916;SDS011;68315;48.608;11.436;2023-06-01T09:25:10;4.90;;;3.63;;
78916;SDS011;68315;48.608;11.436;2023-06-01T09:27:44;4.38;;;3.63;;
78916;SDS011;68315;48.608;11.436;2023-06-01T09:30:11;5.55;;;3.55;;
78916;SDS011;68315;48.608;11.436;2023-06-01T09:32:37;4.63;;;3.63;;
78916;SDS011;68315;48.608;11.436;2023-06-01T09:35:03;7.10;;;3.80;;
78916;SDS011;68315;48.608;11.436;2023-06-01T09:37:32;4.65;;;3.40;;
78916;SDS011;68315;48.608;11.436;2023-06-01T09:39:57;6.30;;;3.60;;
78916;SDS011;68315;48.608;11.436;2023-06-01T09:42:32;7.47;;;3.90;;
78916;SDS011;68315;48.608;11.436;2023-06-01T09:48:15;5.93;;;4.00;;
78916;SDS011;68315;48.608;11.436;2023-06-01T09:50:44;6.22;;;3.55;;
78916;SDS011;68315;48.608;11.436;2023-06-01T09:53:09;5.82;;;4.20;;
78916;SDS011;68315;48.608;11.436;2023-06-01T09:55:35;5.67;;;3.87;;
78916;SDS011;68315;48.608;11.436;2023-06-01T09:58:21;7.90;;;3.90;;
78916;SDS011;68315;48.608;11.436;2023-06-01T10:00:50;5.38;;;4.20;;
78916;SDS011;68315;48.608;11.436;2023-06-01T10:03:16;5.38;;;3.53;;
78916;SDS011;68315;48.608;11.436;2023-06-01T10:05:43;5.90;;;4.20;;
78916;SDS011;68315;48.608;11.436;2023-06-01T10:08:12;4.55;;;3.72;;
78916;SDS011;68315;48.608;11.436;2023-06-01T10:10:39;5.78;;;3.83;;
78916;SDS011;68315;48.608;11.436;2023-06-01T10:13:06;5.00;;;3.55;;
78916;SDS011;68315;48.608;11.436;2023-06-01T10:15:32;5.50;;;4.15;;
78916;SDS011;68315;48.608;11.436;2023-06-01T10:17:58;6.18;;;3.70;;
78916;SDS011;68315;48.608;11.436;2023-06-01T10:20:25;5.63;;;4.10;;
78916;SDS011;68315;48.608;11.436;2023-06-01T10:22:50;6.40;;;3.60;;
78916;SDS011;68315;48.608;11.436;2023-06-01T10:25:16;6.60;;;4.05;;
78916;SDS011;68315;48.608;11.436;2023-06-01T10:27:45;4.75;;;3.97;;
78916;SDS011;68315;48.608;11.436;2023-06-01T10:30:19;4.15;;;3.30;;
78916;SDS011;68315;48.608;11.436;2023-06-01T10:32:45;4.30;;;3.30;;
78916;SDS011;68315;48.608;11.436;2023-06-01T10:38:32;5.75;;;4.03;;
78916;SDS011;68315;48.608;11.436;2023-06-01T10:40:42;8.90;;;4.30;;
78916;SDS011;68315;48.608;11.436;2023-06-01T10:46:33;5.07;;;3.33;;
78916;SDS011;68315;48.608;11.436;2023-06-01T10:48:58;4.00;;;3.47;;
78916;SDS011;68315;48.608;11.436;2023-06-01T10:51:24;6.10;;;3.60;;
78916;SDS011;68315;48.608;11.436;2023-06-01T10:53:50;5.10;;;4.00;;
78916;SDS011;68315;48.608;11.436;2023-06-01T10:58:41;5.60;;;4.07;;
78916;SDS011;68315;48.608;11.436;2023-06-01T11:01:07;3.83;;;3.42;;
78916;SDS011;68315;48.608;11.436;2023-06-01T11:03:46;4.20;;;3.20;;
78916;SDS011;68315;48.608;11.436;2023-06-01T11:06:23;4.15;;;3.10;;
78916;SDS011;68315;48.608;11.436;2023-06-01T11:08:51;6.70;;;4.10;;
78916;SDS011;68315;48.608;11.436;2023-06-01T11:11:20;4.82;;;3.58;;
78916;SDS011;68315;48.608;11.436;2023-06-01T11:14:04;4.85;;;3.38;;
78916;SDS011;68315;48.608;11.436;2023-06-01T11:16:35;4.78;;;3.75;;
78916;SDS011;68315;48.608;11.436;2023-06-01T11:19:01;5.47;;;3.38;;
78916;SDS011;68315;48.608;11.436;2023-06-01T11:24:06;4.57;;;3.63;;
78916;SDS011;68315;48.608;11.436;2023-06-01T11:26:35;5.40;;;4.05;;
78916;SDS011;68315;48.608;11.436;2023-06-01T11:29:06;5.13;;;3.58;;
78916;SDS011;68315;48.608;11.436;2023-06-01T11:31:34;5.55;;;3.20;;
78916;SDS011;68315;48.608;11.436;2023-06-01T11:34:01;4.65;;;4.00;;
78916;SDS011;68315;48.608;11.436;2023-06-01T11:36:27;5.28;;;3.53;;
78916;SDS011;68315;48.608;11.436;2023-06-01T11:38:53;5.80;;;3.38;;
78916;SDS011;68315;48.608;11.436;2023-06-01T11:41:20;6.07;;;3.67;;
78916;SDS011;68315;48.608;11.436;2023-06-01T11:43:57;4.35;;;3.90;;
78916;SDS011;68315;48.608;11.436;2023-06-01T11:46:23;5.00;;;3.83;;
78916;SDS011;68315;48.608;11.436;2023-06-01T11:49:05;4.63;;;3.65;;
78916;SDS011;68315;48.608;11.436;2023-06-01T11:51:31;3.35;;;3.05;;
78916;SDS011;68315;48.608;11.436;2023-06-01T11:54:02;4.43;;;3.65;;
78916;SDS011;68315;48.608;11.436;2023-06-01T11:56:30;3.88;;;3.47;;
78916;SDS011;68315;48.608;11.436;2023-06-01T11:59:01;6.05;;;3.80;;
78916;SDS011;68315;48.608;11.436;2023-06-01T12:01:35;5.82;;;4.13;;
78916;SDS011;68315;48.608;11.436;2023-06-01T12:04:04;5.38;;;2.92;;
78916;SDS011;68315;48.608;11.436;2023-06-01T12:06:32;5.07;;;3.95;;
78916;SDS011;68315;48.608;11.436;2023-06-01T12:08:58;4.55;;;3.63;;
78916;SDS011;68315;48.608;11.436;2023-06-01T12:11:24;4.25;;;3.40;;
78916;SDS011;68315;48.608;11.436;2023-06-01T12:13:54;6.15;;;3.90;;
78916;SDS011;68315;48.608;11.436;2023-06-01T12:16:23;4.18;;;3.78;;
78916;SDS011;68315;48.608;11.436;2023-06-01T12:18:48;4.03;;;3.63;;
78916;SDS011;68315;48.608;11.436;2023-06-01T12:21:14;4.50;;;3.72;;
78916;SDS011;68315;48.608;11.436;2023-06-01T12:23:41;6.55;;;4.78;;
78916;SDS011;68315;48.608;11.436;2023-06-01T12:26:07;4.38;;;3.92;;
78916;SDS011;68315;48.608;11.436;2023-06-01T12:31:15;4.55;;;3.50;;
78916;SDS011;68315;48.608;11.436;2023-06-01T12:39:37;4.40;;;3.88;;
78916;SDS011;68315;48.608;11.436;2023-06-01T12:42:03;4.50;;;3.70;;
78916;SDS011;68315;48.608;11.436;2023-06-01T12:44:30;6.38;;;4.50;;
78916;SDS011;68315;48.608;11.436;2023-06-01T12:46:56;4.78;;;3.70;;
78916;SDS011;68315;48.608;11.436;2023-06-01T12:49:25;4.60;;;3.90;;
78916;SDS011;68315;48.608;11.436;2023-06-01T12:51:52;4.43;;;3.60;;
78916;SDS011;68315;48.608;11.436;2023-06-01T12:54:18;4.82;;;3.83;;
78916;SDS011;68315;48.608;11.436;2023-06-01T12:56:43;4.53;;;3.28;;
78916;SDS011;68315;48.608;11.436;2023-06-01T12:59:09;6.43;;;3.58;;
78916;SDS011;68315;48.608;11.436;2023-06-01T13:01:35;4.75;;;3.83;;
78916;SDS011;68315;48.608;11.436;2023-06-01T13:04:00;3.30;;;3.00;;
78916;SDS011;68315;48.608;11.436;2023-06-01T13:06:28;4.10;;;3.30;;
78916;SDS011;68315;48.608;11.436;2023-06-01T13:08:53;4.78;;;3.70;;
78916;SDS011;68315;48.608;11.436;2023-06-01T13:11:18;4.00;;;3.60;;
78916;SDS011;68315;48.608;11.436;2023-06-01T13:13:44;5.57;;;3.95;;
78916;SDS011;68315;48.608;11.436;2023-06-01T13:16:10;5.32;;;3.40;;
78916;SDS011;68315;48.608;11.436;2023-06-01T13:18:35;6.07;;;4.18;;
78916;SDS011;68315;48.608;11.436;2023-06-01T13:21:01;4.45;;;3.60;;
78916;SDS011;68315;48.608;11.436;2023-06-01T13:23:27;4.40;;;3.63;;
78916;SDS011;68315;48.608;11.436;2023-06-01T13:25:53;4.07;;;3.33;;
78916;SDS011;68315;48.608;11.436;2023-06-01T13:28:18;6.30;;;4.03;;
78916;SDS011;68315;48.608;11.436;2023-06-01T13:30:44;4.65;;;3.70;;
78916;SDS011;68315;48.608;11.436;2023-06-01T13:33:09;5.53;;;3.43;;
78916;SDS011;68315;48.608;11.436;2023-06-01T13:35:34;4.97;;;4.00;;
78916;SDS011;68315;48.608;11.436;2023-06-01T13:38:01;3.65;;;3.35;;
78916;SDS011;68315;48.608;11.436;2023-06-01T13:40:26;4.68;;;3.75;;
78916;SDS011;68315;48.608;11.436;2023-06-01T13:42:52;7.43;;;3.47;;
78916;SDS011;68315;48.608;11.436;2023-06-01T13:45:18;3.63;;;3.33;;
78916;SDS011;68315;48.608;11.436;2023-06-01T13:47:44;3.85;;;2.97;;
78916;SDS011;68315;48.608;11.436;2023-06-01T13:50:10;4.45;;;3.58;;
78916;SDS011;68315;48.608;11.436;2023-06-01T13:52:37;4.10;;;2.92;;
78916;SDS011;68315;48.608;11.436;2023-06-01T13:55:02;4.38;;;2.63;;
78916;SDS011;68315;48.608;11.436;2023-06-01T13:57:28;4.55;;;3.80;;
78916;SDS011;68315;48.608;11.436;2023-06-01T13:59:53;5.65;;;3.67;;
78916;SDS011;68315;48.608;11.436;2023-06-01T14:02:19;5.57;;;3.77;;
78916;SDS011;68315;48.608;11.436;2023-06-01T14:04:45;3.55;;;2.80;;
78916;SDS011;68315;48.608;11.436;2023-06-01T14:07:10;5.97;;;3.95;;
78916;SDS011;68315;48.608;11.436;2023-06-01T14:09:36;6.05;;;3.38;;
78916;SDS011;68315;48.608;11.436;2023-06-01T14:12:01;3.40;;;3.10;;
78916;SDS011;68315;48.608;11.436;2023-06-01T14:14:26;5.05;;;3.92;;
78916;SDS011;68315;48.608;11.436;2023-06-01T14:16:52;4.77;;;3.10;;
78916;SDS011;68315;48.608;11.436;2023-06-01T14:19:17;4.10;;;3.20;;
78916;SDS011;68315;48.608;11.436;2023-06-01T14:21:42;3.57;;;3.03;;
78916;SDS011;68315;48.608;11.436;2023-06-01T14:24:07;6.10;;;3.83;;
78916;SDS011;68315;48.608;11.436;2023-06-01T14:26:33;6.13;;;3.67;;
78916;SDS011;68315;48.608;11.436;2023-06-01T14:28:58;5.80;;;4.00;;
78916;SDS011;68315;48.608;11.436;2023-06-01T14:31:23;4.65;;;3.60;;
78916;SDS011;68315;48.608;11.436;2023-06-01T14:33:49;4.72;;;3.60;;
78916;SDS011;68315;48.608;11.436;2023-06-01T14:36:14;5.53;;;3.47;;
78916;SDS011;68315;48.608;11.436;2023-06-01T14:38:39;5.55;;;3.72;;
78916;SDS011;68315;48.608;11.436;2023-06-01T14:41:05;4.43;;;3.42;;
78916;SDS011;68315;48.608;11.436;2023-06-01T14:43:30;5.30;;;3.35;;
78916;SDS011;68315;48.608;11.436;2023-06-01T14:45:56;4.57;;;3.30;;
78916;SDS011;68315;48.608;11.436;2023-06-01T14:48:22;3.50;;;2.50;;
78916;SDS011;68315;48.608;11.436;2023-06-01T14:50:47;3.00;;;2.58;;
78916;SDS011;68315;48.608;11.436;2023-06-01T14:53:12;4.10;;;2.97;;
78916;SDS011;68315;48.608;11.436;2023-06-01T14:55:39;4.90;;;3.58;;
78916;SDS011;68315;48.608;11.436;2023-06-01T14:58:05;3.92;;;3.15;;
78916;SDS011;68315;48.608;11.436;2023-06-01T15:00:30;6.07;;;3.40;;
78916;SDS011;68315;48.608;11.436;2023-06-01T15:02:56;3.80;;;2.80;;
78916;SDS011;68315;48.608;11.436;2023-06-01T15:05:21;3.43;;;2.80;;
78916;SDS011;68315;48.608;11.436;2023-06-01T15:07:46;5.63;;;3.20;;